Time;durP1;ratioP1;P1;durP2;ratioP2;P2;SDS_P1;SDS_P2;PMS_P1;PMS_P2;Temp;Humidity;BMP_temperature;BMP_pressure;BME280_temperature;BME280_humidity;BME280_pressure;Samples;Min_cycle;Max_cycle;Signal;HPM_P1;HPM_P2
2022/06/13 00:01:08;;;;;;;;;;;;;;;;;;5082402;28;20327;-79
2022/06/13 00:03:34;;;;;;;;;;;;;;;;;;5078235;28;20090;-81
2022/06/13 00:06:00;;;;;;;;;;;;;;;;;;5081713;28;19932;-80
2022/06/13 00:08:26;;;;;;;;;;;;;;;;;;5082166;28;19924;-81
2022/06/13 00:10:52;;;;;;;;;;;;;;;;;;5064349;28;19931;-80
2022/06/13 00:13:18;;;;;;;;;;;;;;;;;;5065453;28;20007;-80
2022/06/13 00:15:44;;;;;;;;;;;;;;;;;;5078828;28;20018;-82
2022/06/13 00:18:10;;;;;;;;;;;;;;;;;;5069790;28;19932;-81
2022/06/13 00:20:36;;;;;;;;;;;;;;;;;;5077146;28;19993;-80
2022/06/13 00:23:02;;;;;;;;;;;;;;;;;;5061134;28;19970;-80
2022/06/13 00:25:28;;;;;;;;;;;;;;;;;;5077657;28;19924;-81
2022/06/13 00:27:54;;;;;;;;;;;;;;;;;;5077041;28;19971;-79
2022/06/13 00:30:20;;;;;;;;;;;;;;;;;;5061400;28;19927;-80
2022/06/13 00:32:46;;;;;;;;;;;;;;;;;;5065747;28;19970;-80
2022/06/13 00:35:12;;;;;;;;;;;;;;;;;;5061482;28;19924;-80
2022/06/13 00:37:38;;;;;;;;;;;;;;;;;;5095151;28;20006;-81
2022/06/13 00:40:04;;;;;;;;;;;;;;;;;;5084963;28;19932;-82
2022/06/13 00:42:30;;;;;;;;;;;;;;;;;;5079159;28;19939;-81
2022/06/13 00:44:56;;;;;;;;;;;;;;;;;;5075285;28;19920;-82
2022/06/13 00:47:22;;;;;;;;;;;;;;;;;;5074723;28;19928;-80
2022/06/13 00:49:47;;;;;;;;;;;;;;;;;;5075654;28;20002;-82
2022/06/13 00:52:13;;;;;;;;;;;;;;;;;;5093346;28;19979;-81
2022/06/13 00:54:39;;;;;;;;;;;;;;;;;;5064577;28;19947;-80
2022/06/13 00:57:05;;;;;;;;;;;;;;;;;;5059134;28;19924;-81
2022/06/13 00:59:31;;;;;;;;;;;;;;;;;;5084207;28;20332;-81
2022/06/13 01:01:57;;;;;;;;;;;;;;;;;;5079496;28;19924;-81
2022/06/13 01:04:23;;;;;;;;;;;;;;;;;;5078797;28;19977;-81
2022/06/13 01:06:49;;;;;;;;;;;;;;;;;;5063414;28;20275;-80
2022/06/13 01:09:15;;;;;;;;;;;;;;;;;;5079843;28;19949;-80
2022/06/13 01:11:41;;;;;;;;;;;;;;;;;;5058029;28;19946;-80
2022/06/13 01:14:07;;;;;;;;;;;;;;;;;;5076709;28;19928;-80
2022/06/13 01:16:33;;;;;;;;;;;;;;;;;;5076717;28;20034;-81
2022/06/13 01:18:59;;;;;;;;;;;;;;;;;;5055050;28;19978;-81
2022/06/13 01:21:25;;;;;;;;;;;;;;;;;;5057081;28;20023;-81
2022/06/13 01:23:51;;;;;;;;;;;;;;;;;;5080952;28;19943;-81
2022/06/13 01:26:17;;;;;;;;;;;;;;;;;;5060115;28;19932;-81
2022/06/13 01:28:43;;;;;;;;;;;;;;;;;;5075262;28;20385;-80
2022/06/13 01:31:09;;;;;;;;;;;;;;;;;;5059896;28;19993;-81
2022/06/13 01:33:35;;;;;;;;;;;;;;;;;;5063899;28;19924;-81
2022/06/13 01:36:01;;;;;;;;;;;;;;;;;;5074861;28;19932;-81
2022/06/13 01:38:27;;;;;;;;;;;;;;;;;;5080517;28;20030;-83
2022/06/13 01:40:53;;;;;;;;;;;;;;;;;;5077584;28;19992;-80
2022/06/13 01:43:19;;;;;;;;;;;;;;;;;;5079982;28;19928;-80
2022/06/13 01:45:45;;;;;;;;;;;;;;;;;;5077146;28;19924;-80
2022/06/13 01:48:11;;;;;;;;;;;;;;;;;;5081410;28;19931;-79
2022/06/13 01:50:37;;;;;;;;;;;;;;;;;;5059958;28;20296;-81
2022/06/13 01:53:03;;;;;;;;;;;;;;;;;;5075213;28;19932;-81
2022/06/13 01:55:29;;;;;;;;;;;;;;;;;;5060122;28;19924;-80
2022/06/13 01:57:55;;;;;;;;;;;;;;;;;;5094615;28;19974;-81
2022/06/13 02:00:21;;;;;;;;;;;;;;;;;;5076603;28;19934;-81
2022/06/13 02:02:47;;;;;;;;;;;;;;;;;;5078848;28;19930;-80
2022/06/13 02:05:13;;;;;;;;;;;;;;;;;;5064685;28;19928;-81
2022/06/13 02:07:41;;;;;;;;;;;;;;;;;;5067684;28;20276;-81
2022/06/13 02:10:07;;;;;;;;;;;;;;;;;;5058877;28;19931;-81
2022/06/13 02:12:33;;;;;;;;;;;;;;;;;;5060896;28;19924;-80
2022/06/13 02:14:59;;;;;;;;;;;;;;;;;;5084406;28;19924;-81
2022/06/13 02:17:25;;;;;;;;;;;;;;;;;;5074032;28;19940;-80
2022/06/13 02:19:50;;;;;;;;;;;;;;;;;;5082043;28;19935;-80
2022/06/13 02:22:16;;;;;;;;;;;;;;;;;;5071135;28;19934;-80
2022/06/13 02:24:42;;;;;;;;;;;;;;;;;;5080989;28;19927;-80
2022/06/13 02:27:08;;;;;;;;;;;;;;;;;;5100022;28;19924;-80
2022/06/13 02:29:34;;;;;;;;;;;;;;;;;;5079142;28;19973;-80
2022/06/13 02:32:00;;;;;;;;;;;;;;;;;;5059941;28;20391;-81
2022/06/13 02:34:26;;;;;;;;;;;;;;;;;;5075722;28;19975;-82
2022/06/13 02:36:52;;;;;;;;;;;;;;;;;;5083756;28;19920;-81
2022/06/13 02:39:18;;;;;;;;;;;;;;;;;;5063971;28;20393;-81
2022/06/13 02:41:44;;;;;;;;;;;;;;;;;;5082126;28;20368;-80
2022/06/13 02:44:10;;;;;;;;;;;;;;;;;;5076144;28;19954;-80
2022/06/13 02:46:36;;;;;;;;;;;;;;;;;;5063607;28;19928;-81
2022/06/13 02:49:02;;;;;;;;;;;;;;;;;;5099822;28;19986;-80
2022/06/13 02:51:28;;;;;;;;;;;;;;;;;;5082127;28;19924;-80
2022/06/13 02:53:54;;;;;;;;;;;;;;;;;;5095849;28;20367;-81
2022/06/13 02:56:20;;;;;;;;;;;;;;;;;;5078387;28;20198;-80
2022/06/13 02:58:46;;;;;;;;;;;;;;;;;;5086241;28;19970;-81
2022/06/13 03:01:12;;;;;;;;;;;;;;;;;;5083899;28;19923;-80
2022/06/13 03:03:38;;;;;;;;;;;;;;;;;;5068511;28;20326;-81
2022/06/13 03:06:03;;;;;;;;;;;;;;;;;;5066544;28;19936;-80
2022/06/13 03:08:29;;;;;;;;;;;;;;;;;;5065924;28;20003;-80
2022/06/13 03:10:55;;;;;;;;;;;;;;;;;;5080451;28;19932;-82
2022/06/13 03:13:21;;;;;;;;;;;;;;;;;;5069127;28;20358;-80
2022/06/13 03:15:47;;;;;;;;;;;;;;;;;;5097790;28;19932;-80
2022/06/13 03:18:13;;;;;;;;;;;;;;;;;;5065033;28;19924;-80
2022/06/13 03:20:39;;;;;;;;;;;;;;;;;;5081195;28;19932;-81
2022/06/13 03:23:05;;;;;;;;;;;;;;;;;;5086187;28;20007;-80
2022/06/13 03:25:31;;;;;;;;;;;;;;;;;;5076339;28;20023;-81
2022/06/13 03:27:57;;;;;;;;;;;;;;;;;;5080386;28;19931;-80
2022/06/13 03:30:23;;;;;;;;;;;;;;;;;;5064041;28;19931;-81
2022/06/13 03:33:40;;;;;;;;;;;;;;;;;;5082379;28;19980;-81
2022/06/13 03:35:35;;;;;;;;;;;;;;;;;;5082878;28;20019;-80
2022/06/13 03:38:01;;;;;;;;;;;;;;;;;;5095341;28;20015;-80
2022/06/13 03:40:27;;;;;;;;;;;;;;;;;;5080617;28;19931;-81
2022/06/13 03:42:53;;;;;;;;;;;;;;;;;;5100784;28;19928;-80
2022/06/13 03:45:19;;;;;;;;;;;;;;;;;;5076689;28;19928;-79
2022/06/13 03:47:45;;;;;;;;;;;;;;;;;;5080420;28;19954;-80
2022/06/13 03:50:11;;;;;;;;;;;;;;;;;;5098125;28;20014;-80
2022/06/13 03:52:37;;;;;;;;;;;;;;;;;;5083512;28;19974;-80
2022/06/13 03:55:03;;;;;;;;;;;;;;;;;;5083487;28;20374;-80
2022/06/13 03:57:29;;;;;;;;;;;;;;;;;;5063738;28;19924;-80
2022/06/13 03:59:56;;;;;;;;;;;;;;;;;;5071222;28;19949;-81
2022/06/13 04:02:22;;;;;;;;;;;;;;;;;;5075489;28;19924;-81
2022/06/13 04:04:48;;;;;;;;;;;;;;;;;;5068703;28;19924;-80
2022/06/13 04:07:14;;;;;;;;;;;;;;;;;;5079964;28;19932;-81
2022/06/13 04:09:40;;;;;;;;;;;;;;;;;;5079671;28;19923;-80
2022/06/13 04:12:06;;;;;;;;;;;;;;;;;;5065098;28;19924;-79
2022/06/13 04:14:32;;;;;;;;;;;;;;;;;;5059456;28;19928;-80
2022/06/13 04:16:58;;;;;;;;;;;;;;;;;;5084640;28;21328;-79
2022/06/13 04:19:23;;;;;;;;;;;;;;;;;;5073789;28;20700;-81
2022/06/13 04:21:49;;;;;;;;;;;;;;;;;;5096122;28;19928;-79
2022/06/13 04:24:15;;;;;;;;;;;;;;;;;;5069194;28;21249;-79
2022/06/13 04:26:41;;;;;;;;;;;;;;;;;;5080799;28;20057;-79
2022/06/13 04:29:07;;;;;;;;;;;;;;;;;;5083894;28;19924;-80
2022/06/13 04:31:33;;;;;;;;;;;;;;;;;;5067527;28;19981;-81
2022/06/13 04:33:59;;;;;;;;;;;;;;;;;;5079222;28;19924;-79
2022/06/13 04:36:25;;;;;;;;;;;;;;;;;;5066474;28;19924;-79
2022/06/13 04:38:52;;;;;;;;;;;;;;;;;;5058209;28;19934;-80
2022/06/13 04:41:18;;;;;;;;;;;;;;;;;;5077874;28;19932;-79
2022/06/13 04:43:44;;;;;;;;;;;;;;;;;;5073971;28;19935;-79
2022/06/13 04:46:09;;;;;;;;;;;;;;;;;;5064442;28;19927;-79
2022/06/13 04:48:35;;;;;;;;;;;;;;;;;;5082582;28;20295;-80
2022/06/13 04:51:01;;;;;;;;;;;;;;;;;;5078437;28;19989;-80
2022/06/13 04:53:27;;;;;;;;;;;;;;;;;;5058641;28;19936;-79
2022/06/13 04:55:53;;;;;;;;;;;;;;;;;;5076190;28;19935;-80
2022/06/13 04:58:19;;;;;;;;;;;;;;;;;;5088087;28;19997;-80
2022/06/13 05:00:45;;;;;;;;;;;;;;;;;;5083473;28;19950;-79
2022/06/13 05:03:11;;;;;;;;;;;;;;;;;;5081287;28;19932;-79
2022/06/13 05:05:37;;;;;;;;;;;;;;;;;;5095904;28;19928;-81
2022/06/13 05:08:03;;;;;;;;;;;;;;;;;;5074232;28;20449;-78
2022/06/13 05:10:29;;;;;;;;;;;;;;;;;;5080620;28;19924;-79
2022/06/13 05:12:55;;;;;;;;;;;;;;;;;;5078391;28;19931;-78
2022/06/13 05:15:21;;;;;;;;;;;;;;;;;;5068798;28;20023;-81
2022/06/13 05:17:47;;;;;;;;;;;;;;;;;;5074075;28;19924;-80
2022/06/13 05:20:13;;;;;;;;;;;;;;;;;;5084822;28;20370;-80
2022/06/13 05:22:39;;;;;;;;;;;;;;;;;;5082786;28;20014;-81
2022/06/13 05:25:05;;;;;;;;;;;;;;;;;;5082413;28;20015;-80
2022/06/13 05:27:31;;;;;;;;;;;;;;;;;;5061396;28;19931;-82
2022/06/13 05:29:57;;;;;;;;;;;;;;;;;;5087078;28;19924;-80
2022/06/13 05:32:23;;;;;;;;;;;;;;;;;;5098350;28;19939;-80
2022/06/13 05:34:49;;;;;;;;;;;;;;;;;;5080978;28;19928;-79
2022/06/13 05:37:14;;;;;;;;;;;;;;;;;;5060993;28;19939;-82
2022/06/13 05:39:40;;;;;;;;;;;;;;;;;;5069331;28;19974;-80
2022/06/13 05:42:06;;;;;;;;;;;;;;;;;;5082635;28;19924;-81
2022/06/13 05:44:32;;;;;;;;;;;;;;;;;;5079973;28;20010;-80
2022/06/13 05:46:58;;;;;;;;;;;;;;;;;;5074449;28;20306;-79
2022/06/13 05:49:24;;;;;;;;;;;;;;;;;;5087395;28;20321;-79
2022/06/13 05:51:50;;;;;;;;;;;;;;;;;;5095669;28;19988;-79
2022/06/13 05:54:16;;;;;;;;;;;;;;;;;;5074930;28;20371;-80
2022/06/13 05:56:42;;;;;;;;;;;;;;;;;;5068901;28;20390;-79
2022/06/13 05:59:09;;;;;;;;;;;;;;;;;;5068003;28;20363;-79
2022/06/13 06:01:36;;;;;;;;;;;;;;;;;;5069466;28;19930;-80
2022/06/13 06:04:01;;;;;;;;;;;;;;;;;;5083933;28;20294;-79
2022/06/13 06:06:27;;;;;;;;;;;;;;;;;;5084686;28;19938;-82
2022/06/13 06:08:57;;;;;;;;;;;;;;;;;;5084973;28;19928;-83
2022/06/13 06:11:23;;;;;;;;;;;;;;;;;;5084009;28;19924;-83
2022/06/13 06:13:49;;;;;;;;;;;;;;;;;;5073031;28;20278;-81
2022/06/13 06:16:15;;;;;;;;;;;;;;;;;;5083976;28;19974;-86
2022/06/13 06:18:41;;;;;;;;;;;;;;;;;;5070439;28;19938;-85
2022/06/13 06:21:07;;;;;;;;;;;;;;;;;;5080607;28;20338;-86
2022/06/13 06:23:33;;;;;;;;;;;;;;;;;;5080192;28;19970;-79
2022/06/13 06:25:59;;;;;;;;;;;;;;;;;;5083005;28;19977;-79
2022/06/13 06:28:25;;;;;;;;;;;;;;;;;;5061725;28;19932;-81
2022/06/13 06:30:51;;;;;;;;;;;;;;;;;;5088691;28;19928;-79
2022/06/13 06:33:17;;;;;;;;;;;;;;;;;;5084969;28;19931;-79
2022/06/13 06:35:43;;;;;;;;;;;;;;;;;;5064349;28;19935;-79
2022/06/13 06:38:09;;;;;;;;;;;;;;;;;;5078846;28;19934;-80
2022/06/13 06:40:35;;;;;;;;;;;;;;;;;;5079280;28;19932;-81
2022/06/13 06:43:01;;;;;;;;;;;;;;;;;;5081398;28;19958;-80
2022/06/13 06:45:27;;;;;;;;;;;;;;;;;;5073538;28;19932;-79
2022/06/13 06:47:53;;;;;;;;;;;;;;;;;;5077923;28;20302;-79
2022/06/13 06:50:19;;;;;;;;;;;;;;;;;;5076772;28;19924;-79
2022/06/13 06:52:45;;;;;;;;;;;;;;;;;;5101089;28;20485;-79
2022/06/13 07:00:41;;;;;;;;;;;;;;;;;;5099864;28;19962;-79
2022/06/13 07:03:07;;;;;;;;;;;;;;;;;;5082353;28;19923;-81
2022/06/13 07:05:33;;;;;;;;;;;;;;;;;;5060208;28;19924;-79
2022/06/13 07:07:58;;;;;;;;;;;;;;;;;;5098472;28;19970;-79
2022/06/13 07:10:24;;;;;;;;;;;;;;;;;;5093879;28;19928;-82
2022/06/13 07:12:50;;;;;;;;;;;;;;;;;;5105594;28;19932;-77
2022/06/13 07:15:16;;;;;;;;;;;;;;;;;;5076167;28;19930;-80
2022/06/13 07:17:42;;;;;;;;;;;;;;;;;;5086746;28;19932;-81
2022/06/13 07:20:08;;;;;;;;;;;;;;;;;;5093915;28;19962;-79
2022/06/13 07:22:34;;;;;;;;;;;;;;;;;;5060477;28;19949;-78
2022/06/13 07:25:00;;;;;;;;;;;;;;;;;;5067925;28;19932;-78
2022/06/13 07:27:26;;;;;;;;;;;;;;;;;;5071745;28;19925;-81
2022/06/13 07:29:52;;;;;;;;;;;;;;;;;;5081254;28;20037;-77
2022/06/13 07:32:18;;;;;;;;;;;;;;;;;;5094885;28;20006;-80
2022/06/13 07:34:44;;;;;;;;;;;;;;;;;;5064764;28;19978;-78
2022/06/13 07:37:10;;;;;;;;;;;;;;;;;;5093892;28;20018;-78
2022/06/13 07:39:36;;;;;;;;;;;;;;;;;;5081038;28;20382;-78
2022/06/13 07:42:02;;;;;;;;;;;;;;;;;;5060186;28;19930;-78
2022/06/13 07:44:28;;;;;;;;;;;;;;;;;;5068722;28;20010;-81
2022/06/13 07:46:54;;;;;;;;;;;;;;;;;;5094269;28;20371;-78
2022/06/13 07:49:20;;;;;;;;;;;;;;;;;;5082174;28;20899;-78
2022/06/13 07:51:46;;;;;;;;;;;;;;;;;;5079690;28;20329;-78
2022/06/13 07:54:12;;;;;;;;;;;;;;;;;;5068658;28;19943;-78
2022/06/13 07:56:38;;;;;;;;;;;;;;;;;;5099174;28;19967;-79
2022/06/13 07:59:04;;;;;;;;;;;;;;;;;;5087476;28;19924;-83
2022/06/13 08:01:30;;;;;;;;;;;;;;;;;;5079223;28;19924;-82
2022/06/13 08:03:56;;;;;;;;;;;;;;;;;;5078453;28;20014;-79
2022/06/13 08:06:22;;;;;;;;;;;;;;;;;;5079843;28;19924;-79
2022/06/13 08:08:48;;;;;;;;;;;;;;;;;;5059290;28;19978;-80
2022/06/13 08:11:13;;;;;;;;;;;;;;;;;;5076483;28;19924;-77
2022/06/13 08:13:39;;;;;;;;;;;;;;;;;;5065843;28;20026;-79
2022/06/13 08:16:05;;;;;;;;;;;;;;;;;;5084056;28;19924;-77
2022/06/13 08:18:31;;;;;;;;;;;;;;;;;;5084794;28;19923;-82
2022/06/13 08:20:59;;;;;;;;;;;;;;;;;;5079766;28;20398;-83
2022/06/13 08:23:25;;;;;;;;;;;;;;;;;;5073151;28;20083;-84
2022/06/13 08:25:51;;;;;;;;;;;;;;;;;;5066893;28;19971;-88
2022/06/13 08:28:17;;;;;;;;;;;;;;;;;;5096053;28;19924;-87
2022/06/13 08:30:43;;;;;;;;;;;;;;;;;;5065885;28;19968;-88
2022/06/13 08:33:09;;;;;;;;;;;;;;;;;;5088436;28;19931;-87
2022/06/13 08:35:35;;;;;;;;;;;;;;;;;;5083144;28;19931;-84
2022/06/13 08:38:03;;;;;;;;;;;;;;;;;;5059229;28;20014;-82
2022/06/13 08:40:29;;;;;;;;;;;;;;;;;;5081376;28;19924;-84
2022/06/13 08:42:55;;;;;;;;;;;;;;;;;;5077641;28;20436;-81
2022/06/13 08:45:21;;;;;;;;;;;;;;;;;;5060448;28;20480;-83
2022/06/13 08:47:47;;;;;;;;;;;;;;;;;;5071195;28;19924;-82
2022/06/13 08:50:13;;;;;;;;;;;;;;;;;;5083148;28;20409;-83
2022/06/13 08:52:39;;;;;;;;;;;;;;;;;;5082896;28;20004;-79
2022/06/13 08:55:05;;;;;;;;;;;;;;;;;;5101848;28;19938;-79
2022/06/13 08:57:31;;;;;;;;;;;;;;;;;;5083316;28;19928;-79
2022/06/13 08:59:57;;;;;;;;;;;;;;;;;;5092712;28;19973;-79
2022/06/13 09:02:23;;;;;;;;;;;;;;;;;;5075350;28;20359;-80
2022/06/13 09:04:50;;;;;;;;;;;;;;;;;;5092915;28;19924;-78
2022/06/13 09:07:16;;;;;;;;;;;;;;;;;;5075836;28;19924;-77
2022/06/13 09:09:42;;;;;;;;;;;;;;;;;;5095710;28;20398;-78
2022/06/13 09:12:08;;;;;;;;;;;;;;;;;;5058527;28;20367;-78
2022/06/13 09:14:34;;;;;;;;;;;;;;;;;;5096345;28;19924;-79
2022/06/13 09:17:01;;;;;;;;;;;;;;;;;;5096113;28;20287;-76
2022/06/13 09:19:27;;;;;;;;;;;;;;;;;;5078876;28;20363;-76
2022/06/13 09:21:53;;;;;;;;;;;;;;;;;;5058727;28;19931;-76
2022/06/13 09:24:19;;;;;;;;;;;;;;;;;;5078717;28;19943;-76
2022/06/13 09:26:45;;;;;;;;;;;;;;;;;;5080874;28;20014;-77
2022/06/13 09:29:11;;;;;;;;;;;;;;;;;;5073107;28;20022;-77
2022/06/13 09:31:37;;;;;;;;;;;;;;;;;;5071639;28;19924;-81
2022/06/13 09:34:03;;;;;;;;;;;;;;;;;;5070452;28;19924;-79
2022/06/13 09:36:29;;;;;;;;;;;;;;;;;;5070230;28;20078;-79
2022/06/13 09:38:55;;;;;;;;;;;;;;;;;;5069662;28;19931;-84
2022/06/13 09:41:21;;;;;;;;;;;;;;;;;;5072437;28;20454;-78
2022/06/13 09:43:47;;;;;;;;;;;;;;;;;;5073485;28;19955;-76
2022/06/13 09:46:13;;;;;;;;;;;;;;;;;;5076747;28;19951;-77
2022/06/13 09:48:39;;;;;;;;;;;;;;;;;;5074657;28;19924;-76
2022/06/13 09:51:05;;;;;;;;;;;;;;;;;;5084809;28;20381;-76
2022/06/13 09:53:31;;;;;;;;;;;;;;;;;;5057396;28;19951;-77
2022/06/13 09:55:57;;;;;;;;;;;;;;;;;;5077135;28;20283;-76
2022/06/13 09:58:23;;;;;;;;;;;;;;;;;;5092256;28;19924;-76
2022/06/13 10:00:49;;;;;;;;;;;;;;;;;;5055671;28;20333;-76
2022/06/13 10:03:15;;;;;;;;;;;;;;;;;;5073222;28;19924;-76
2022/06/13 10:05:41;;;;;;;;;;;;;;;;;;5075187;28;19974;-77
2022/06/13 10:08:07;;;;;;;;;;;;;;;;;;5075118;28;19932;-77
2022/06/13 10:10:33;;;;;;;;;;;;;;;;;;5073640;28;19983;-76
2022/06/13 10:12:59;;;;;;;;;;;;;;;;;;5073003;28;19971;-77
2022/06/13 10:15:25;;;;;;;;;;;;;;;;;;5076691;28;19920;-77
2022/06/13 10:17:52;;;;;;;;;;;;;;;;;;5073429;28;19928;-76
2022/06/13 10:20:18;;;;;;;;;;;;;;;;;;5077377;28;19924;-78
2022/06/13 10:22:44;;;;;;;;;;;;;;;;;;5059706;28;19924;-76
2022/06/13 10:25:10;;;;;;;;;;;;;;;;;;5074933;28;19972;-76
2022/06/13 10:27:36;;;;;;;;;;;;;;;;;;5074762;28;19970;-76
2022/06/13 10:30:04;;;;;;;;;;;;;;;;;;5072805;28;19924;-76
2022/06/13 10:32:30;;;;;;;;;;;;;;;;;;5075315;28;19924;-77
2022/06/13 10:34:56;;;;;;;;;;;;;;;;;;5060623;28;20267;-80
2022/06/13 10:37:22;;;;;;;;;;;;;;;;;;5072444;28;19939;-81
2022/06/13 10:39:48;;;;;;;;;;;;;;;;;;5069379;28;19932;-81
2022/06/13 10:42:14;;;;;;;;;;;;;;;;;;5067488;28;19924;-77
2022/06/13 10:44:40;;;;;;;;;;;;;;;;;;5071910;28;19935;-81
2022/06/13 10:47:06;;;;;;;;;;;;;;;;;;5057961;28;19930;-80
2022/06/13 10:49:32;;;;;;;;;;;;;;;;;;5074232;28;19963;-78
2022/06/13 10:51:58;;;;;;;;;;;;;;;;;;5071914;28;19935;-80
2022/06/13 10:54:24;;;;;;;;;;;;;;;;;;5058982;28;20014;-81
2022/06/13 10:56:50;;;;;;;;;;;;;;;;;;5052267;28;19931;-80
2022/06/13 10:59:15;;;;;;;;;;;;;;;;;;5059040;28;19931;-79
2022/06/13 11:01:41;;;;;;;;;;;;;;;;;;5070650;28;19928;-83
2022/06/13 11:04:07;;;;;;;;;;;;;;;;;;5077058;28;20657;-80
2022/06/13 11:06:33;;;;;;;;;;;;;;;;;;5073732;28;20643;-82
2022/06/13 11:08:59;;;;;;;;;;;;;;;;;;5060036;28;20279;-82
2022/06/13 11:11:25;;;;;;;;;;;;;;;;;;5070030;28;19967;-80
2022/06/13 11:13:52;;;;;;;;;;;;;;;;;;5086850;28;21231;-80
2022/06/13 11:24:32;;;;;;;;;;;;;;;;;;5076562;28;20052;-85
2022/06/13 11:29:43;;;;;;;;;;;;;;;;;;5073031;28;21143;-82
2022/06/13 11:32:11;;;;;;;;;;;;;;;;;;5097589;28;19932;-79
2022/06/13 11:34:38;;;;;;;;;;;;;;;;;;5087360;28;19923;-79
2022/06/13 11:37:04;;;;;;;;;;;;;;;;;;5077885;28;20010;-81
2022/06/13 11:39:30;;;;;;;;;;;;;;;;;;5076736;28;20092;-87
2022/06/13 11:41:56;;;;;;;;;;;;;;;;;;5074313;28;20462;-85
2022/06/13 11:44:22;;;;;;;;;;;;;;;;;;5074072;28;21168;-85
2022/06/13 11:46:50;;;;;;;;;;;;;;;;;;5065466;28;20401;-86
2022/06/13 11:49:16;;;;;;;;;;;;;;;;;;5061869;28;19932;-81
2022/06/13 11:51:42;;;;;;;;;;;;;;;;;;5055380;28;20370;-80
2022/06/13 11:54:08;;;;;;;;;;;;;;;;;;5051355;28;20022;-79
2022/06/13 11:56:34;;;;;;;;;;;;;;;;;;5095077;28;20023;-80
2022/06/13 11:58:59;;;;;;;;;;;;;;;;;;5091799;28;20455;-80
2022/06/13 12:01:25;;;;;;;;;;;;;;;;;;5093482;28;19924;-81
2022/06/13 12:03:51;;;;;;;;;;;;;;;;;;5083564;28;20027;-80
2022/06/13 12:06:17;;;;;;;;;;;;;;;;;;5065975;28;19980;-79
2022/06/13 12:08:43;;;;;;;;;;;;;;;;;;5078904;28;19928;-81
2022/06/13 12:11:09;;;;;;;;;;;;;;;;;;5071872;28;19950;-80
2022/06/13 12:13:35;;;;;;;;;;;;;;;;;;5080807;28;20984;-82
2022/06/13 12:16:01;;;;;;;;;;;;;;;;;;5067062;28;19928;-81
2022/06/13 12:18:27;;;;;;;;;;;;;;;;;;5055363;28;19978;-80
2022/06/13 12:20:53;;;;;;;;;;;;;;;;;;5067559;28;19932;-80
2022/06/13 12:23:19;;;;;;;;;;;;;;;;;;5074067;28;19932;-79
2022/06/13 12:25:45;;;;;;;;;;;;;;;;;;5076045;28;19961;-80
2022/06/13 12:28:11;;;;;;;;;;;;;;;;;;5058052;28;19932;-80
2022/06/13 12:30:37;;;;;;;;;;;;;;;;;;5081161;28;19935;-80
2022/06/13 12:33:03;;;;;;;;;;;;;;;;;;5070542;28;19931;-79
2022/06/13 12:35:29;;;;;;;;;;;;;;;;;;5055398;28;20351;-79
2022/06/13 12:37:55;;;;;;;;;;;;;;;;;;5077667;28;19984;-75
2022/06/13 12:40:21;;;;;;;;;;;;;;;;;;5070470;28;19934;-75
2022/06/13 12:42:47;;;;;;;;;;;;;;;;;;5092307;28;19924;-75
2022/06/13 12:45:13;;;;;;;;;;;;;;;;;;5092715;28;19928;-75
2022/06/13 12:47:39;;;;;;;;;;;;;;;;;;5069396;28;19936;-79
2022/06/13 12:50:05;;;;;;;;;;;;;;;;;;5053411;28;19939;-77
2022/06/13 12:52:31;;;;;;;;;;;;;;;;;;5065482;28;19928;-76
2022/06/13 12:54:57;;;;;;;;;;;;;;;;;;5072663;28;19927;-79
2022/06/13 12:57:23;;;;;;;;;;;;;;;;;;5074434;28;19924;-75
2022/06/13 12:59:49;;;;;;;;;;;;;;;;;;5074491;28;19963;-78
2022/06/13 13:02:15;;;;;;;;;;;;;;;;;;5076370;28;19931;-75
2022/06/13 13:04:41;;;;;;;;;;;;;;;;;;5093371;28;19928;-76
2022/06/13 13:07:07;;;;;;;;;;;;;;;;;;5080424;28;19931;-76
2022/06/13 13:09:33;;;;;;;;;;;;;;;;;;5079552;28;19924;-78
2022/06/13 13:11:59;;;;;;;;;;;;;;;;;;5065026;28;20469;-79
2022/06/13 13:14:25;;;;;;;;;;;;;;;;;;5056414;28;20329;-79
2022/06/13 13:16:51;;;;;;;;;;;;;;;;;;5076444;28;19932;-80
2022/06/13 13:19:17;;;;;;;;;;;;;;;;;;5054461;28;20015;-80
2022/06/13 13:21:43;;;;;;;;;;;;;;;;;;5059515;28;19952;-79
2022/06/13 13:24:09;;;;;;;;;;;;;;;;;;5061057;28;19924;-78
2022/06/13 13:26:35;;;;;;;;;;;;;;;;;;5095806;28;20260;-80
2022/06/13 13:29:01;;;;;;;;;;;;;;;;;;5079452;28;19927;-80
2022/06/13 13:31:28;;;;;;;;;;;;;;;;;;5069477;28;19932;-79
2022/06/13 13:33:54;;;;;;;;;;;;;;;;;;5077538;28;19979;-77
2022/06/13 13:36:20;;;;;;;;;;;;;;;;;;5072733;28;19971;-78
2022/06/13 13:38:46;;;;;;;;;;;;;;;;;;5067901;28;19924;-77
2022/06/13 13:41:12;;;;;;;;;;;;;;;;;;5071983;28;20402;-78
2022/06/13 13:43:38;;;;;;;;;;;;;;;;;;5085578;28;20370;-76
2022/06/13 13:46:05;;;;;;;;;;;;;;;;;;5069621;28;20363;-79
2022/06/13 13:48:31;;;;;;;;;;;;;;;;;;5050888;28;20002;-81
2022/06/13 13:50:57;;;;;;;;;;;;;;;;;;5071707;28;20367;-79
2022/06/13 13:53:23;;;;;;;;;;;;;;;;;;5071588;28;19928;-76
2022/06/13 13:55:49;;;;;;;;;;;;;;;;;;5090265;28;20024;-72
2022/06/13 13:58:15;;;;;;;;;;;;;;;;;;5092661;28;20371;-77
2022/06/13 14:00:41;;;;;;;;;;;;;;;;;;5076145;28;19939;-76
2022/06/13 14:03:07;;;;;;;;;;;;;;;;;;5081447;28;20120;-74
2022/06/13 14:05:33;;;;;;;;;;;;;;;;;;5075891;28;19963;-76
2022/06/13 14:08:02;;;;;;;;;;;;;;;;;;5074899;28;19977;-75
2022/06/13 14:10:27;;;;;;;;;;;;;;;;;;5072744;28;20256;-76
2022/06/13 14:12:53;;;;;;;;;;;;;;;;;;5074160;28;19931;-76
2022/06/13 14:15:19;;;;;;;;;;;;;;;;;;5091323;28;20013;-75
2022/06/13 14:17:45;;;;;;;;;;;;;;;;;;5093527;28;19924;-76
2022/06/13 14:20:11;;;;;;;;;;;;;;;;;;5080319;28;19927;-76
2022/06/13 14:22:37;;;;;;;;;;;;;;;;;;5083119;28;19977;-75
2022/06/13 14:25:03;;;;;;;;;;;;;;;;;;5070636;28;19932;-76
2022/06/13 14:27:29;;;;;;;;;;;;;;;;;;5079105;28;19933;-78
2022/06/13 14:31:03;;;;;;;;;;;;;;;;;;5079566;28;19932;-76
2022/06/13 14:32:41;;;;;;;;;;;;;;;;;;5097171;28;19928;-74
2022/06/13 14:35:15;;;;;;;;;;;;;;;;;;5081606;28;20301;-80
2022/06/13 14:37:40;;;;;;;;;;;;;;;;;;5070290;28;19920;-78
2022/06/13 14:40:06;;;;;;;;;;;;;;;;;;5071716;28;19924;-79
2022/06/13 14:42:32;;;;;;;;;;;;;;;;;;5071802;28;20030;-79
2022/06/13 14:44:58;;;;;;;;;;;;;;;;;;5070814;28;19934;-78
2022/06/13 14:47:24;;;;;;;;;;;;;;;;;;5071518;28;20981;-77
2022/06/13 14:49:50;;;;;;;;;;;;;;;;;;5072052;28;20028;-76
2022/06/13 14:52:18;;;;;;;;;;;;;;;;;;5052764;28;19932;-76
2022/06/13 14:54:44;;;;;;;;;;;;;;;;;;5079209;28;19935;-76
2022/06/13 14:57:10;;;;;;;;;;;;;;;;;;5090044;28;19932;-76
2022/06/13 14:59:36;;;;;;;;;;;;;;;;;;5066866;28;20315;-75
2022/06/13 15:02:02;;;;;;;;;;;;;;;;;;5088940;28;19988;-77
2022/06/13 15:04:28;;;;;;;;;;;;;;;;;;5066152;28;19920;-76
2022/06/13 15:06:54;;;;;;;;;;;;;;;;;;5070917;28;19924;-76
2022/06/13 15:09:20;;;;;;;;;;;;;;;;;;5072872;28;20283;-75
2022/06/13 15:11:47;;;;;;;;;;;;;;;;;;5081567;28;20270;-74
2022/06/13 15:14:13;;;;;;;;;;;;;;;;;;5068980;28;19924;-76
2022/06/13 15:16:39;;;;;;;;;;;;;;;;;;5074428;28;20072;-76
2022/06/13 15:19:05;;;;;;;;;;;;;;;;;;5067763;28;20007;-76
2022/06/13 15:21:31;;;;;;;;;;;;;;;;;;5074587;28;20073;-76
2022/06/13 15:23:57;;;;;;;;;;;;;;;;;;5102148;28;20430;-75
2022/06/13 15:26:23;;;;;;;;;;;;;;;;;;5059717;28;19928;-77
2022/06/13 15:28:49;;;;;;;;;;;;;;;;;;5069326;28;19935;-76
2022/06/13 15:31:18;;;;;;;;;;;;;;;;;;5061868;28;19924;-75
2022/06/13 15:33:44;;;;;;;;;;;;;;;;;;5072399;28;19986;-77
2022/06/13 15:36:10;;;;;;;;;;;;;;;;;;5073386;28;19932;-76
2022/06/13 15:38:36;;;;;;;;;;;;;;;;;;5074000;28;19924;-78
2022/06/13 15:41:03;;;;;;;;;;;;;;;;;;5072226;28;19924;-80
2022/06/13 15:43:29;;;;;;;;;;;;;;;;;;5071415;28;19932;-80
2022/06/13 15:45:55;;;;;;;;;;;;;;;;;;5067738;28;19931;-79
2022/06/13 15:48:21;;;;;;;;;;;;;;;;;;5070852;28;19927;-78
2022/06/13 15:50:46;;;;;;;;;;;;;;;;;;5050622;28;19959;-81
2022/06/13 15:53:12;;;;;;;;;;;;;;;;;;5067177;28;19928;-83
2022/06/13 15:55:38;;;;;;;;;;;;;;;;;;5071363;28;19928;-78
2022/06/13 15:58:04;;;;;;;;;;;;;;;;;;5083118;28;19919;-76
2022/06/13 16:00:33;;;;;;;;;;;;;;;;;;5094635;28;19971;-77
2022/06/13 16:02:59;;;;;;;;;;;;;;;;;;5088074;28;19924;-78
2022/06/13 16:05:25;;;;;;;;;;;;;;;;;;5075248;28;20651;-78
2022/06/13 16:07:51;;;;;;;;;;;;;;;;;;5078108;28;19936;-78
2022/06/13 16:10:17;;;;;;;;;;;;;;;;;;5080827;28;20319;-79
2022/06/13 16:12:43;;;;;;;;;;;;;;;;;;5081027;28;20319;-78
2022/06/13 16:15:09;;;;;;;;;;;;;;;;;;5072013;28;19931;-79
2022/06/13 16:17:35;;;;;;;;;;;;;;;;;;5081927;28;19959;-77
2022/06/13 16:20:01;;;;;;;;;;;;;;;;;;5107556;28;19963;-77
2022/06/13 16:22:27;;;;;;;;;;;;;;;;;;5090491;28;19932;-83
2022/06/13 16:24:54;;;;;;;;;;;;;;;;;;5055763;28;19947;-77
2022/06/13 16:27:20;;;;;;;;;;;;;;;;;;5066169;28;19932;-77
2022/06/13 16:29:46;;;;;;;;;;;;;;;;;;5103303;28;20010;-77
2022/06/13 16:32:12;;;;;;;;;;;;;;;;;;5099683;28;19951;-77
2022/06/13 16:34:37;;;;;;;;;;;;;;;;;;5092930;28;19924;-76
2022/06/13 16:37:03;;;;;;;;;;;;;;;;;;5099985;28;20448;-78
2022/06/13 16:39:29;;;;;;;;;;;;;;;;;;5084769;28;19934;-76
2022/06/13 16:41:55;;;;;;;;;;;;;;;;;;5078610;28;20440;-78
2022/06/13 16:44:21;;;;;;;;;;;;;;;;;;5087076;28;20033;-79
2022/06/13 16:46:47;;;;;;;;;;;;;;;;;;5096404;28;20359;-75
2022/06/13 16:49:14;;;;;;;;;;;;;;;;;;5058470;28;19924;-75
2022/06/13 16:51:40;;;;;;;;;;;;;;;;;;5079405;28;20412;-77
2022/06/13 16:54:06;;;;;;;;;;;;;;;;;;5081525;28;20371;-77